Michael S — WDE9794 — position and weather

sailwx.info

Track history (hours):
 
Tides and Currents Weather Stations Pressure Air Temp Water Temp Dewpoint Dewpoint Depression Visibility Wind Speed Wind Dir Waves Ship Positions

Michael S

Owner: Bisso Tow Boats Inc., New Orleans, LA. More information available from US FCC via Universal Licensing System and Coast Guard Vessel Documentation Center.

Last reported at 2015-Mar-31 16:33 UTC. Time now 2015-Mar-31 16:54 UTC.
Position N 29°55' W 090°04'.

Length 33 m; draft 3 m.

Type: Towing. MMSI: 367413700.

Date/timePositionNaut miles runAvg speedWind from/ knotsBaromVisibWave heightAir tempDewpointWater temp
2015-Mar-31 16:33N 29°55' W 090°04'4 1.8
2015-Mar-31 14:13N 29°56' W 090°08'6 0.8
2015-Mar-31 07:17N 29°58' W 090°02'0 0.0
2015-Mar-31 05:22N 29°58' W 090°02'1 0.6
2015-Mar-31 04:32N 29°57' W 090°02'2 0.3
2015-Mar-30 23:04N 29°56' W 089°60'3 1.0
2015-Mar-30 20:08N 29°55' W 089°57'0 0.0
2015-Mar-30 18:32N 29°55' W 089°57'6 0.4
2015-Mar-30 05:13N 29°56' W 090°03'0 0.3
2015-Mar-30 04:32N 29°56' W 090°03'2 0.4
2015-Mar-29 23:18N 29°58' W 090°02'4 1.8
2015-Mar-29 21:18N 29°56' W 089°59'2 0.7
2015-Mar-29 18:07N 29°55' W 089°56'3 1.8
2015-Mar-29 16:22N 29°56' W 089°60'1 0.9
2015-Mar-29 15:27N 29°57' W 090°00'10 9.6
2015-Mar-29 14:27N 29°56' W 090°11'6 0.1
2015-Mar-27 11:05N 29°55' W 090°04'0 0.3
2015-Mar-27 09:07N 29°55' W 090°05'0 0.6
2015-Mar-27 08:18N 29°55' W 090°04'  
Track history (hours):
 
Tides and Currents Weather Stations Pressure Air Temp Water Temp Dewpoint Dewpoint Depression Visibility Wind Speed Wind Dir Waves Ship Positions

Michael S

Owner: Bisso Tow Boats Inc., New Orleans, LA. More information available from US FCC via Universal Licensing System and Coast Guard Vessel Documentation Center.

Last reported at 2015-Mar-31 16:33 UTC. Time now 2015-Mar-31 16:54 UTC.
Position N 29°55' W 090°04'.

Length 33 m; draft 3 m.

Type: Towing. MMSI: 367413700.

Date/timePositionNaut miles runAvg speedWind from/ knotsBaromVisibWave heightAir tempDewpointWater temp
2015-Mar-31 16:33N 29°55' W 090°04'4 1.8
2015-Mar-31 14:13N 29°56' W 090°08'6 0.8
2015-Mar-31 07:17N 29°58' W 090°02'0 0.0
2015-Mar-31 05:22N 29°58' W 090°02'1 0.6
2015-Mar-31 04:32N 29°57' W 090°02'2 0.3
2015-Mar-30 23:04N 29°56' W 089°60'3 1.0
2015-Mar-30 20:08N 29°55' W 089°57'0 0.0
2015-Mar-30 18:32N 29°55' W 089°57'6 0.4
2015-Mar-30 05:13N 29°56' W 090°03'0 0.3
2015-Mar-30 04:32N 29°56' W 090°03'2 0.4
2015-Mar-29 23:18N 29°58' W 090°02'4 1.8
2015-Mar-29 21:18N 29°56' W 089°59'2 0.7
2015-Mar-29 18:07N 29°55' W 089°56'3 1.8
2015-Mar-29 16:22N 29°56' W 089°60'1 0.9
2015-Mar-29 15:27N 29°57' W 090°00'10 9.6
2015-Mar-29 14:27N 29°56' W 090°11'6 0.1
2015-Mar-27 11:05N 29°55' W 090°04'0 0.3
2015-Mar-27 09:07N 29°55' W 090°05'0 0.6
2015-Mar-27 08:18N 29°55' W 090°04'  

Dump ship's entire track history